createdAt,value
2023-02-28T00:02:08.510Z,99.90
2023-02-28T00:04:36.419Z,99.90
2023-02-28T00:07:03.493Z,99.90
2023-02-28T00:09:32.540Z,99.90
2023-02-28T00:12:11.050Z,99.90
2023-02-28T00:14:38.924Z,99.90
2023-02-28T00:17:05.985Z,99.90
2023-02-28T00:19:33.903Z,99.90
2023-02-28T00:22:01.003Z,99.90
2023-02-28T00:24:28.050Z,99.90
2023-02-28T00:26:55.086Z,99.90
2023-02-28T00:29:22.041Z,99.90
2023-02-28T00:31:49.976Z,99.90
2023-02-28T00:34:17.055Z,99.90
2023-02-28T00:36:47.171Z,99.90
2023-02-28T00:39:16.651Z,99.90
2023-02-28T00:41:43.564Z,99.90
2023-02-28T00:44:10.656Z,99.90
2023-02-28T00:46:40.209Z,99.90
2023-02-28T00:49:07.040Z,99.90
2023-02-28T00:51:34.158Z,99.90
2023-02-28T00:54:01.152Z,99.90
2023-02-28T00:56:28.240Z,99.90
2023-02-28T00:58:57.310Z,99.90
2023-02-28T01:01:26.567Z,99.90
2023-02-28T01:03:53.824Z,99.90
2023-02-28T01:06:20.875Z,99.90
2023-02-28T01:08:48.093Z,99.90
2023-02-28T01:11:18.483Z,99.90
2023-02-28T01:13:46.755Z,99.90
2023-02-28T01:16:15.066Z,99.90
2023-02-28T01:18:43.855Z,99.90
2023-02-28T01:21:14.507Z,99.90
2023-02-28T01:23:43.956Z,99.90
2023-02-28T01:26:14.554Z,99.90
2023-02-28T01:28:42.990Z,99.90
2023-02-28T01:31:10.614Z,99.90
2023-02-28T01:33:41.559Z,99.90
2023-02-28T01:36:14.761Z,99.90
2023-02-28T01:38:44.006Z,99.90
2023-02-28T01:41:19.724Z,99.90
2023-02-28T01:43:46.704Z,99.90
2023-02-28T01:46:16.083Z,99.90
2023-02-28T01:49:09.896Z,99.90
2023-02-28T01:51:51.575Z,99.90
2023-02-28T01:54:26.701Z,99.90
2023-02-28T01:57:00.339Z,99.90
2023-02-28T01:59:53.398Z,99.90
2023-02-28T02:02:22.874Z,99.90
2023-02-28T02:05:02.709Z,99.90
2023-02-28T02:07:32.819Z,99.90
2023-02-28T02:10:06.724Z,99.90
2023-02-28T02:12:43.907Z,99.90
2023-02-28T02:15:22.810Z,99.90
2023-02-28T02:17:54.988Z,99.90
2023-02-28T02:20:49.984Z,99.90
2023-02-28T02:23:27.739Z,99.90
2023-02-28T02:26:28.091Z,99.90
2023-02-28T02:29:25.850Z,99.90
2023-02-28T02:32:26.635Z,99.90
2023-02-28T02:34:57.836Z,99.90
2023-02-28T02:37:42.033Z,99.90
2023-02-28T02:40:17.364Z,99.90
2023-02-28T02:42:58.933Z,99.90
2023-02-28T02:45:49.141Z,99.90
2023-02-28T02:48:20.775Z,99.90
2023-02-28T02:50:59.163Z,99.90
2023-02-28T02:53:37.804Z,99.90
2023-02-28T02:56:06.428Z,99.90
2023-02-28T02:58:43.350Z,99.90
2023-02-28T03:01:17.332Z,99.90
2023-02-28T03:03:46.630Z,99.90
2023-02-28T03:06:16.148Z,99.90
2023-02-28T03:08:43.115Z,99.90
2023-02-28T03:11:15.807Z,99.90
2023-02-28T03:14:06.955Z,99.90
2023-02-28T03:16:37.490Z,99.90
2023-02-28T03:19:31.242Z,99.90
2023-02-28T03:22:07.435Z,99.90
2023-02-28T03:24:46.408Z,99.90
2023-02-28T03:27:22.748Z,99.90
2023-02-28T03:30:11.990Z,99.90
2023-02-28T03:33:13.704Z,99.90
2023-02-28T03:35:50.935Z,99.90
2023-02-28T03:38:46.809Z,99.90
2023-02-28T03:41:26.621Z,99.90
2023-02-28T03:43:59.141Z,99.90
2023-02-28T03:46:32.157Z,99.90
2023-02-28T03:49:05.562Z,99.90
2023-02-28T03:51:34.099Z,99.90
2023-02-28T03:54:08.334Z,99.90
2023-02-28T03:56:56.529Z,99.90
2023-02-28T03:59:39.002Z,99.90
2023-02-28T04:02:06.109Z,99.90
2023-02-28T04:04:35.156Z,99.90
2023-02-28T04:07:09.513Z,99.90
2023-02-28T04:09:36.402Z,99.90
2023-02-28T04:12:04.751Z,99.90
2023-02-28T04:14:31.704Z,99.90
2023-02-28T04:16:58.739Z,99.90
2023-02-28T04:19:26.692Z,99.90
2023-02-28T04:21:55.104Z,99.90
2023-02-28T04:24:26.029Z,99.90
2023-02-28T04:26:55.725Z,99.90
2023-02-28T04:29:27.480Z,99.90
2023-02-28T04:31:55.156Z,99.90
2023-02-28T04:34:24.526Z,99.90
2023-02-28T04:37:06.384Z,99.90
2023-02-28T04:39:38.129Z,99.90
2023-02-28T04:42:05.753Z,99.90
2023-02-28T04:44:33.652Z,99.90
2023-02-28T04:47:01.810Z,99.90
2023-02-28T04:49:29.793Z,99.90
2023-02-28T04:51:56.751Z,99.90
2023-02-28T04:54:23.813Z,99.90
2023-02-28T04:56:50.993Z,99.90
2023-02-28T04:59:18.112Z,99.90
2023-02-28T05:01:48.232Z,99.90
2023-02-28T05:04:15.908Z,99.90
2023-02-28T05:06:45.098Z,99.90
2023-02-28T05:09:15.148Z,99.90
2023-02-28T05:11:42.149Z,99.90
2023-02-28T05:14:15.568Z,99.90
2023-02-28T05:16:43.981Z,99.90
2023-02-28T05:19:13.061Z,99.90
2023-02-28T05:21:42.084Z,99.90
2023-02-28T05:24:12.944Z,99.90
2023-02-28T05:26:42.679Z,99.90
2023-02-28T05:29:10.115Z,99.90
2023-02-28T05:31:38.618Z,99.90
2023-02-28T05:34:07.344Z,99.90
2023-02-28T05:36:34.705Z,99.90
2023-02-28T05:39:05.996Z,99.90
2023-02-28T05:41:32.915Z,99.90
2023-02-28T05:44:01.333Z,99.90
2023-02-28T05:46:28.281Z,99.90
2023-02-28T05:48:56.715Z,99.90
2023-02-28T05:51:24.860Z,99.90
2023-02-28T05:53:51.829Z,99.90
2023-02-28T05:56:18.915Z,99.90
2023-02-28T05:58:45.925Z,99.90
2023-02-28T06:01:49.117Z,99.90
2023-02-28T06:04:31.099Z,99.90
2023-02-28T06:06:59.290Z,99.90
2023-02-28T06:09:26.142Z,99.90
2023-02-28T06:11:55.146Z,99.90
2023-02-28T06:14:23.166Z,99.90
2023-02-28T06:16:51.176Z,99.90
2023-02-28T06:19:18.425Z,99.90
2023-02-28T06:21:46.199Z,99.90
2023-02-28T06:24:14.237Z,99.90
2023-02-28T06:26:43.243Z,99.90
2023-02-28T06:29:11.170Z,99.90
2023-02-28T06:31:39.309Z,99.90
2023-02-28T06:34:08.079Z,99.90
2023-02-28T06:36:35.201Z,99.90
2023-02-28T06:39:02.178Z,99.90
2023-02-28T06:41:31.399Z,99.90
2023-02-28T06:44:01.190Z,99.90
2023-02-28T06:46:28.295Z,99.90
2023-02-28T06:48:55.569Z,99.90
2023-02-28T06:51:23.507Z,99.90
2023-02-28T06:53:50.943Z,99.90
2023-02-28T06:56:21.421Z,99.90
2023-02-28T06:58:53.381Z,99.90
2023-02-28T07:01:20.775Z,99.90
2023-02-28T07:03:53.037Z,99.90
2023-02-28T07:06:23.499Z,99.90
2023-02-28T07:08:51.819Z,99.90
2023-02-28T07:11:19.418Z,99.90
2023-02-28T07:13:47.609Z,99.90
2023-02-28T07:16:14.736Z,99.90
2023-02-28T07:18:41.519Z,99.90
2023-02-28T07:21:10.952Z,99.90
2023-02-28T07:23:39.046Z,99.90
2023-02-28T07:26:07.621Z,99.90
2023-02-28T07:28:34.712Z,99.90
2023-02-28T07:31:06.036Z,99.90
2023-02-28T07:33:35.166Z,99.90
2023-02-28T07:36:08.421Z,99.90
2023-02-28T07:38:36.625Z,99.90
2023-02-28T07:41:08.641Z,99.90
2023-02-28T07:43:36.341Z,99.90
2023-02-28T07:46:09.384Z,99.90
2023-02-28T07:48:36.622Z,99.90
2023-02-28T07:51:04.102Z,99.90
2023-02-28T07:53:31.667Z,99.90
2023-02-28T07:56:00.279Z,99.90
2023-02-28T07:58:27.853Z,99.90
2023-02-28T08:00:54.810Z,99.90
2023-02-28T08:03:23.774Z,99.90
2023-02-28T08:05:51.065Z,99.90
2023-02-28T08:08:18.094Z,99.90
2023-02-28T08:10:45.159Z,99.90
2023-02-28T08:13:12.236Z,99.90
2023-02-28T08:15:39.295Z,99.90
2023-02-28T08:18:06.784Z,99.90
2023-02-28T08:20:33.539Z,99.90
2023-02-28T08:23:00.449Z,99.90
2023-02-28T08:25:27.470Z,99.90
2023-02-28T08:27:54.583Z,99.90
2023-02-28T08:30:21.481Z,99.90
2023-02-28T08:32:48.573Z,99.90
2023-02-28T08:35:15.726Z,99.90
2023-02-28T08:37:42.641Z,99.90
2023-02-28T08:40:10.227Z,99.90
2023-02-28T08:42:37.172Z,99.90
2023-02-28T08:45:04.495Z,99.90
2023-02-28T08:47:31.378Z,99.90
2023-02-28T08:49:58.314Z,99.90
2023-02-28T08:52:25.478Z,99.90
2023-02-28T08:54:52.481Z,99.90
2023-02-28T08:57:19.494Z,99.90
2023-02-28T08:59:46.546Z,99.90
2023-02-28T09:02:16.428Z,99.90
2023-02-28T09:04:43.151Z,99.90
2023-02-28T09:07:10.166Z,99.90
2023-02-28T09:09:37.209Z,99.90
2023-02-28T09:12:04.650Z,99.90
2023-02-28T09:14:32.083Z,99.90
2023-02-28T09:16:59.353Z,99.90
2023-02-28T09:19:26.147Z,99.90
2023-02-28T09:21:53.798Z,99.50
2023-02-28T09:24:21.511Z,96.90
2023-02-28T09:27:01.744Z,96.00
2023-02-28T09:29:33.529Z,93.60
2023-02-28T09:32:01.204Z,91.10
2023-02-28T09:34:31.761Z,90.10
2023-02-28T09:36:58.926Z,84.20
2023-02-28T09:39:27.797Z,83.60
2023-02-28T09:41:56.342Z,82.50
2023-02-28T09:44:26.018Z,83.40
2023-02-28T09:46:58.319Z,83.00
2023-02-28T09:49:32.583Z,84.40
2023-02-28T09:52:05.059Z,84.00
2023-02-28T09:54:33.983Z,85.90
2023-02-28T09:57:26.992Z,84.10
2023-02-28T10:00:15.264Z,85.10
2023-02-28T10:02:52.304Z,78.60
2023-02-28T10:05:44.612Z,75.20
2023-02-28T10:08:17.304Z,72.50
2023-02-28T10:10:56.362Z,73.70
2023-02-28T10:13:51.530Z,67.60
2023-02-28T10:16:26.314Z,68.60
2023-02-28T10:19:06.096Z,67.70
2023-02-28T10:21:36.277Z,66.30
2023-02-28T10:26:46.239Z,64.20
2023-02-28T10:29:13.358Z,64.60
2023-02-28T10:31:40.815Z,67.60
2023-02-28T10:34:12.677Z,64.20
2023-02-28T10:36:40.510Z,62.70
2023-02-28T10:39:40.970Z,64.30
2023-02-28T10:42:20.071Z,64.10
2023-02-28T10:44:47.145Z,65.00
2023-02-28T10:47:17.906Z,63.80
2023-02-28T10:49:53.614Z,66.20
2023-02-28T10:52:41.077Z,67.10
2023-02-28T10:55:26.611Z,63.30
2023-02-28T10:57:53.846Z,64.30
2023-02-28T11:00:26.294Z,63.70
2023-02-28T11:02:53.414Z,61.30
2023-02-28T11:05:47.270Z,59.20
2023-02-28T11:08:17.664Z,61.40
2023-02-28T11:10:55.642Z,62.50
2023-02-28T11:13:28.145Z,60.40
2023-02-28T11:15:58.072Z,58.80
2023-02-28T11:18:43.277Z,57.20
2023-02-28T11:21:17.435Z,57.60
2023-02-28T11:23:44.617Z,58.40
2023-02-28T11:26:12.390Z,58.00
2023-02-28T11:28:43.576Z,59.80
2023-02-28T11:31:14.730Z,59.00
2023-02-28T11:33:51.119Z,58.70
2023-02-28T11:36:22.434Z,60.50
2023-02-28T11:38:50.586Z,58.40
2023-02-28T11:41:50.036Z,60.10
2023-02-28T11:44:29.876Z,57.80
2023-02-28T11:47:20.065Z,59.00
2023-02-28T11:50:04.907Z,57.70
2023-02-28T11:52:46.500Z,56.30
2023-02-28T11:55:34.983Z,58.10
2023-02-28T11:58:48.267Z,58.60
2023-02-28T12:01:36.107Z,59.60
2023-02-28T12:04:18.686Z,58.80
2023-02-28T12:07:10.358Z,56.70
2023-02-28T12:10:18.825Z,58.40
2023-02-28T12:13:12.001Z,59.80
2023-02-28T12:16:09.642Z,59.20
2023-02-28T12:19:18.544Z,57.90
2023-02-28T12:22:06.486Z,56.50
2023-02-28T12:24:36.270Z,58.00
2023-02-28T12:27:08.544Z,56.10
2023-02-28T12:29:50.701Z,56.20
2023-02-28T12:32:28.823Z,55.60
2023-02-28T12:35:01.898Z,56.20
2023-02-28T12:37:42.158Z,57.40
2023-02-28T12:40:18.970Z,58.00
2023-02-28T12:42:57.474Z,58.50
2023-02-28T12:45:33.300Z,61.20
2023-02-28T12:48:07.151Z,61.10
2023-02-28T12:50:35.368Z,61.20
2023-02-28T12:53:21.122Z,59.80
2023-02-28T12:56:07.466Z,61.40
2023-02-28T12:59:15.658Z,62.50
2023-02-28T13:01:51.458Z,64.90
2023-02-28T13:04:55.479Z,65.10
2023-02-28T13:07:51.240Z,61.50
2023-02-28T13:10:19.769Z,59.20
2023-02-28T13:12:56.194Z,58.40
2023-02-28T13:15:28.984Z,58.00
2023-02-28T13:17:58.983Z,57.90
2023-02-28T13:20:49.262Z,58.30
2023-02-28T13:23:38.017Z,58.90
2023-02-28T13:26:05.196Z,59.50
2023-02-28T13:29:03.181Z,61.80
2023-02-28T13:31:30.260Z,63.20
2023-02-28T13:34:00.514Z,59.90
2023-02-28T13:36:32.619Z,59.10
2023-02-28T13:39:23.729Z,60.50
2023-02-28T13:41:50.803Z,60.50
2023-02-28T13:44:27.607Z,59.50
2023-02-28T13:46:54.548Z,57.30
2023-02-28T13:49:25.860Z,57.60
2023-02-28T13:52:15.987Z,58.00
2023-02-28T13:55:37.084Z,58.80
2023-02-28T13:58:43.767Z,59.50
2023-02-28T14:01:46.976Z,59.30
2023-02-28T14:04:53.708Z,61.00
2023-02-28T14:07:28.792Z,62.80
2023-02-28T14:10:09.433Z,62.00
2023-02-28T14:12:56.034Z,61.50
2023-02-28T14:15:44.545Z,61.10
2023-02-28T14:18:29.657Z,64.30
2023-02-28T14:21:03.256Z,65.50
2023-02-28T14:23:42.477Z,65.70
2023-02-28T14:26:20.753Z,65.10
2023-02-28T14:29:04.741Z,65.10
2023-02-28T14:31:34.664Z,67.00
2023-02-28T14:34:20.079Z,67.50
2023-02-28T14:36:47.940Z,69.10
2023-02-28T14:39:17.655Z,68.90
2023-02-28T14:41:46.437Z,69.40
2023-02-28T14:44:20.207Z,70.60
2023-02-28T14:46:51.216Z,69.40
2023-02-28T14:49:42.701Z,69.90
2023-02-28T14:52:21.990Z,70.30
2023-02-28T14:55:15.062Z,71.10
2023-02-28T14:57:51.900Z,69.50
2023-02-28T15:00:48.155Z,70.30
2023-02-28T15:03:20.025Z,70.50
2023-02-28T15:06:14.945Z,71.50
2023-02-28T15:08:42.114Z,71.20
2023-02-28T15:11:17.324Z,71.40
2023-02-28T15:13:47.831Z,71.60
2023-02-28T15:16:30.487Z,71.40
2023-02-28T15:19:01.233Z,71.30
2023-02-28T15:21:36.542Z,71.80
2023-02-28T15:24:09.307Z,71.90
2023-02-28T15:26:46.937Z,73.20
2023-02-28T15:29:18.285Z,72.20
2023-02-28T15:31:56.826Z,72.20
2023-02-28T15:34:45.486Z,72.40
2023-02-28T15:37:34.438Z,73.90
2023-02-28T15:40:28.034Z,73.20
2023-02-28T15:43:26.358Z,73.40
2023-02-28T15:46:13.405Z,73.40
2023-02-28T15:48:52.028Z,73.70
2023-02-28T15:51:30.462Z,74.70
2023-02-28T15:54:00.848Z,73.80
2023-02-28T15:56:31.029Z,73.00
2023-02-28T15:59:03.223Z,73.10
2023-02-28T16:01:33.411Z,73.20
2023-02-28T16:04:30.593Z,74.00
2023-02-28T16:07:00.377Z,74.20
2023-02-28T16:09:34.283Z,74.70
2023-02-28T16:12:04.045Z,75.40
2023-02-28T16:14:32.068Z,76.00
2023-02-28T16:17:23.617Z,75.20
2023-02-28T16:19:50.534Z,76.80
2023-02-28T16:22:17.708Z,77.10
2023-02-28T16:24:44.979Z,76.90
2023-02-28T16:27:36.149Z,76.80
2023-02-28T16:30:05.450Z,77.20
2023-02-28T16:32:35.646Z,77.70
2023-02-28T16:35:03.918Z,77.90
2023-02-28T16:37:30.995Z,78.80
2023-02-28T16:39:58.041Z,79.40
2023-02-28T16:42:29.201Z,79.80
2023-02-28T16:44:56.819Z,79.60
2023-02-28T16:47:23.877Z,80.50
2023-02-28T16:49:50.786Z,80.90
2023-02-28T16:52:17.718Z,81.90
2023-02-28T16:54:44.986Z,82.20
2023-02-28T16:57:24.192Z,82.80
2023-02-28T16:59:54.237Z,82.50
2023-02-28T17:02:21.464Z,83.20
2023-02-28T17:04:48.669Z,83.30
2023-02-28T17:07:17.680Z,83.40
2023-02-28T17:09:46.814Z,84.20
2023-02-28T17:12:13.882Z,85.00
2023-02-28T17:14:40.898Z,85.60
2023-02-28T17:17:08.812Z,85.30
2023-02-28T17:19:37.145Z,86.00
2023-02-28T17:22:04.268Z,86.80
2023-02-28T17:24:31.650Z,87.40
2023-02-28T17:26:58.944Z,88.40
2023-02-28T17:29:26.094Z,88.80
2023-02-28T17:31:53.964Z,89.60
2023-02-28T17:34:22.570Z,89.60
2023-02-28T17:36:51.924Z,90.10
2023-02-28T17:39:25.136Z,90.60
2023-02-28T17:41:56.295Z,91.20
2023-02-28T17:44:25.027Z,91.60
2023-02-28T17:46:54.306Z,91.90
2023-02-28T17:49:21.861Z,92.50
2023-02-28T17:51:49.561Z,92.50
2023-02-28T17:54:18.302Z,92.80
2023-02-28T17:56:46.191Z,93.30
2023-02-28T17:59:13.513Z,93.60
2023-02-28T18:01:40.754Z,93.60
2023-02-28T18:04:07.825Z,93.80
2023-02-28T18:06:47.367Z,93.60
2023-02-28T18:09:22.647Z,93.90
2023-02-28T18:11:51.577Z,93.90
2023-02-28T18:14:21.721Z,94.20
2023-02-28T18:16:49.707Z,94.40
2023-02-28T18:19:17.635Z,94.70
2023-02-28T18:21:46.607Z,95.00
2023-02-28T18:24:13.854Z,95.60
2023-02-28T18:26:42.213Z,95.80
2023-02-28T18:29:18.034Z,96.20
2023-02-28T18:31:45.058Z,96.60
2023-02-28T18:34:12.002Z,96.40
2023-02-28T18:36:40.072Z,96.30
2023-02-28T18:39:06.883Z,96.30
2023-02-28T18:41:33.984Z,96.80
2023-02-28T18:44:10.405Z,97.00
2023-02-28T18:46:40.829Z,96.90
2023-02-28T18:49:07.726Z,97.50
2023-02-28T18:51:34.800Z,98.30
2023-02-28T18:54:01.809Z,98.90
2023-02-28T18:56:29.270Z,99.20
2023-02-28T18:58:56.322Z,99.40
2023-02-28T19:01:28.518Z,98.90
2023-02-28T19:03:56.140Z,98.50
2023-02-28T19:06:23.567Z,98.00
2023-02-28T19:08:57.810Z,98.00
2023-02-28T19:11:25.517Z,98.30
2023-02-28T19:13:52.989Z,99.30
2023-02-28T19:16:21.499Z,99.40
2023-02-28T19:18:48.318Z,99.20
2023-02-28T19:21:17.133Z,99.80
2023-02-28T19:23:44.779Z,99.90
2023-02-28T19:26:14.587Z,99.90
2023-02-28T19:28:42.166Z,99.90
2023-02-28T19:31:21.575Z,99.90
2023-02-28T19:33:48.703Z,99.90
2023-02-28T19:36:16.493Z,99.90
2023-02-28T19:38:46.554Z,99.90
2023-02-28T19:41:15.420Z,99.90
2023-02-28T19:43:43.324Z,99.90
2023-02-28T19:46:12.070Z,99.90
2023-02-28T19:48:40.024Z,99.90
2023-02-28T19:51:10.743Z,99.90
2023-02-28T19:53:39.306Z,99.90
2023-02-28T19:56:06.756Z,99.90
2023-02-28T19:58:34.368Z,99.90
2023-02-28T20:01:13.247Z,99.90
2023-02-28T20:03:40.958Z,99.90
2023-02-28T20:06:15.210Z,99.90
2023-02-28T20:08:42.352Z,99.90
2023-02-28T20:11:11.797Z,99.90
2023-02-28T20:13:38.767Z,99.90
2023-02-28T20:16:09.461Z,99.90
2023-02-28T20:18:37.712Z,99.90
2023-02-28T20:21:05.152Z,99.90
2023-02-28T20:23:32.358Z,99.90
2023-02-28T20:26:00.832Z,99.90
2023-02-28T20:28:28.067Z,99.90
2023-02-28T20:30:55.662Z,99.90
2023-02-28T20:33:22.880Z,99.90
2023-02-28T20:35:52.668Z,99.90
2023-02-28T20:38:20.279Z,99.90
2023-02-28T20:40:47.262Z,99.90
2023-02-28T20:43:14.278Z,99.90
2023-02-28T20:45:51.196Z,99.90
2023-02-28T20:48:18.256Z,99.90
2023-02-28T20:51:06.338Z,99.90
2023-02-28T20:53:34.561Z,99.90
2023-02-28T20:56:07.479Z,99.90
2023-02-28T20:58:37.060Z,99.90
2023-02-28T21:01:16.049Z,99.90
2023-02-28T21:03:43.837Z,99.90
2023-02-28T21:06:11.445Z,99.90
2023-02-28T21:08:39.340Z,99.90
2023-02-28T21:11:11.681Z,99.90
2023-02-28T21:13:38.973Z,99.90
2023-02-28T21:16:11.458Z,99.90
2023-02-28T21:18:39.024Z,99.90
2023-02-28T21:21:09.227Z,99.90
2023-02-28T21:23:36.352Z,99.90
2023-02-28T21:26:08.794Z,99.90
2023-02-28T21:28:36.636Z,99.90
2023-02-28T21:31:08.917Z,99.90
2023-02-28T21:33:36.459Z,99.90
2023-02-28T21:36:12.299Z,99.90
2023-02-28T21:38:39.949Z,99.90
2023-02-28T21:41:16.858Z,99.90
2023-02-28T21:43:44.752Z,99.90
2023-02-28T21:46:15.973Z,99.90
2023-02-28T21:48:43.866Z,99.90
2023-02-28T21:51:22.514Z,99.90
2023-02-28T21:53:50.072Z,99.90
2023-02-28T21:56:22.334Z,99.90
2023-02-28T21:58:49.958Z,99.90
2023-02-28T22:01:22.425Z,99.90
2023-02-28T22:03:50.131Z,99.90
2023-02-28T22:06:22.916Z,99.90
2023-02-28T22:08:53.936Z,99.90
2023-02-28T22:11:22.541Z,99.90
2023-02-28T22:13:51.733Z,99.90
2023-02-28T22:16:20.521Z,99.90
2023-02-28T22:18:47.928Z,99.90
2023-02-28T22:21:17.374Z,99.90
2023-02-28T22:23:45.454Z,99.90
2023-02-28T22:26:15.802Z,99.90
2023-02-28T22:28:42.949Z,99.90
2023-02-28T22:31:24.775Z,99.90
2023-02-28T22:33:54.933Z,99.90
2023-02-28T22:36:22.420Z,99.90
2023-02-28T22:38:50.915Z,99.90
2023-02-28T22:41:20.410Z,99.90
2023-02-28T22:43:52.584Z,99.90
2023-02-28T22:46:20.168Z,99.90
2023-02-28T22:48:48.747Z,99.90
2023-02-28T22:51:18.444Z,99.90
2023-02-28T22:53:48.026Z,99.90
2023-02-28T22:56:17.301Z,99.90
2023-02-28T22:58:50.449Z,99.90
2023-02-28T23:01:17.676Z,99.90
2023-02-28T23:03:45.032Z,99.90
2023-02-28T23:06:19.815Z,99.90
2023-02-28T23:08:46.788Z,99.90
2023-02-28T23:11:35.281Z,99.90
2023-02-28T23:14:02.444Z,99.90
2023-02-28T23:16:39.174Z,99.90
2023-02-28T23:19:12.943Z,99.90
2023-02-28T23:21:40.922Z,99.90
2023-02-28T23:24:10.703Z,99.90
2023-02-28T23:26:40.473Z,99.90
2023-02-28T23:29:07.877Z,99.90
2023-02-28T23:31:34.873Z,99.90
2023-02-28T23:34:01.908Z,99.90
2023-02-28T23:36:29.506Z,99.90
2023-02-28T23:38:56.690Z,99.90
2023-02-28T23:41:24.547Z,99.90
2023-02-28T23:43:54.776Z,99.90
2023-02-28T23:46:22.417Z,99.90
2023-02-28T23:48:49.611Z,99.90
2023-02-28T23:51:19.657Z,99.90
2023-02-28T23:53:49.303Z,99.90
2023-02-28T23:56:21.463Z,99.90
2023-02-28T23:58:48.999Z,99.90
